sensor_id;sensor_type;location;lat;lon;timestamp;temperature;humidity
54006;DHT22;39919;38.160;-122.260;2023-07-13T00:02:23;24.90;60.80
54006;DHT22;39919;38.160;-122.260;2023-07-13T00:04:53;24.90;60.60
54006;DHT22;39919;38.160;-122.260;2023-07-13T00:07:22;24.90;60.20
54006;DHT22;39919;38.160;-122.260;2023-07-13T00:09:53;24.80;60.40
54006;DHT22;39919;38.160;-122.260;2023-07-13T00:12:24;24.70;60.30
54006;DHT22;39919;38.160;-122.260;2023-07-13T00:14:56;25.20;72.50
54006;DHT22;39919;38.160;-122.260;2023-07-13T00:17:27;24.70;60.00
54006;DHT22;39919;38.160;-122.260;2023-07-13T00:19:57;24.70;61.10
54006;DHT22;39919;38.160;-122.260;2023-07-13T00:22:26;24.70;81.20
54006;DHT22;39919;38.160;-122.260;2023-07-13T00:27:29;24.90;79.70
54006;DHT22;39919;38.160;-122.260;2023-07-13T00:30:12;24.50;77.50
54006;DHT22;39919;38.160;-122.260;2023-07-13T00:32:41;24.50;77.30
54006;DHT22;39919;38.160;-122.260;2023-07-13T00:35:12;24.50;76.20
54006;DHT22;39919;38.160;-122.260;2023-07-13T00:37:42;24.50;76.10
54006;DHT22;39919;38.160;-122.260;2023-07-13T00:40:13;24.40;78.40
54006;DHT22;39919;38.160;-122.260;2023-07-13T00:42:42;24.30;84.80
54006;DHT22;39919;38.160;-122.260;2023-07-13T00:48:20;24.40;84.60
54006;DHT22;39919;38.160;-122.260;2023-07-13T00:50:52;24.30;86.40
54006;DHT22;39919;38.160;-122.260;2023-07-13T00:53:22;24.30;85.30
54006;DHT22;39919;38.160;-122.260;2023-07-13T00:55:56;24.30;85.10
54006;DHT22;39919;38.160;-122.260;2023-07-13T00:58:26;24.30;87.10
54006;DHT22;39919;38.160;-122.260;2023-07-13T01:00:59;24.30;88.80
54006;DHT22;39919;38.160;-122.260;2023-07-13T01:03:30;24.20;89.60
54006;DHT22;39919;38.160;-122.260;2023-07-13T01:05:59;24.20;90.10
54006;DHT22;39919;38.160;-122.260;2023-07-13T01:08:29;24.20;88.50
54006;DHT22;39919;38.160;-122.260;2023-07-13T01:10:58;24.20;88.20
54006;DHT22;39919;38.160;-122.260;2023-07-13T01:13:30;24.10;88.80
54006;DHT22;39919;38.160;-122.260;2023-07-13T01:16:13;24.10;91.60
54006;DHT22;39919;38.160;-122.260;2023-07-13T01:18:45;24.10;89.80
54006;DHT22;39919;38.160;-122.260;2023-07-13T01:28:44;24.00;59.30
54006;DHT22;39919;38.160;-122.260;2023-07-13T01:31:14;23.90;59.80
54006;DHT22;39919;38.160;-122.260;2023-07-13T01:33:43;23.80;59.40
54006;DHT22;39919;38.160;-122.260;2023-07-13T01:36:12;23.80;59.60
54006;DHT22;39919;38.160;-122.260;2023-07-13T01:38:44;23.80;60.00
54006;DHT22;39919;38.160;-122.260;2023-07-13T01:41:13;23.70;59.90
54006;DHT22;39919;38.160;-122.260;2023-07-13T01:43:42;23.60;60.20
54006;DHT22;39919;38.160;-122.260;2023-07-13T01:46:13;23.60;60.40
54006;DHT22;39919;38.160;-122.260;2023-07-13T01:48:42;23.50;60.30
54006;DHT22;39919;38.160;-122.260;2023-07-13T01:51:11;23.40;60.30
54006;DHT22;39919;38.160;-122.260;2023-07-13T01:53:42;23.30;60.50
54006;DHT22;39919;38.160;-122.260;2023-07-13T01:56:11;23.30;61.00
54006;DHT22;39919;38.160;-122.260;2023-07-13T01:58:40;23.20;61.20
54006;DHT22;39919;38.160;-122.260;2023-07-13T02:01:10;23.20;61.30
54006;DHT22;39919;38.160;-122.260;2023-07-13T02:03:39;23.10;61.40
54006;DHT22;39919;38.160;-122.260;2023-07-13T02:06:08;23.00;61.60
54006;DHT22;39919;38.160;-122.260;2023-07-13T02:08:42;23.00;94.40
54006;DHT22;39919;38.160;-122.260;2023-07-13T02:11:11;22.90;94.20
54006;DHT22;39919;38.160;-122.260;2023-07-13T02:13:40;22.80;61.70
54006;DHT22;39919;38.160;-122.260;2023-07-13T02:16:10;22.80;61.90
54006;DHT22;39919;38.160;-122.260;2023-07-13T02:18:39;22.70;62.10
54006;DHT22;39919;38.160;-122.260;2023-07-13T02:21:08;22.70;63.00
54006;DHT22;39919;38.160;-122.260;2023-07-13T02:23:37;22.50;62.60
54006;DHT22;39919;38.160;-122.260;2023-07-13T02:26:08;22.40;62.70
54006;DHT22;39919;38.160;-122.260;2023-07-13T02:28:37;22.40;62.60
54006;DHT22;39919;38.160;-122.260;2023-07-13T02:31:07;22.40;69.90
54006;DHT22;39919;38.160;-122.260;2023-07-13T02:33:36;22.30;66.40
54006;DHT22;39919;38.160;-122.260;2023-07-13T02:36:06;22.10;63.10
54006;DHT22;39919;38.160;-122.260;2023-07-13T02:38:36;22.10;63.40
54006;DHT22;39919;38.160;-122.260;2023-07-13T02:41:08;22.00;63.30
54006;DHT22;39919;38.160;-122.260;2023-07-13T02:43:38;21.90;63.40
54006;DHT22;39919;38.160;-122.260;2023-07-13T02:46:07;21.80;63.60
54006;DHT22;39919;38.160;-122.260;2023-07-13T02:48:37;21.80;63.80
54006;DHT22;39919;38.160;-122.260;2023-07-13T02:51:06;21.70;64.10
54006;DHT22;39919;38.160;-122.260;2023-07-13T02:53:35;21.60;64.40
54006;DHT22;39919;38.160;-122.260;2023-07-13T02:56:05;21.60;64.80
54006;DHT22;39919;38.160;-122.260;2023-07-13T02:58:36;21.50;64.90
54006;DHT22;39919;38.160;-122.260;2023-07-13T03:01:07;21.40;65.00
54006;DHT22;39919;38.160;-122.260;2023-07-13T03:03:37;21.30;65.20
54006;DHT22;39919;38.160;-122.260;2023-07-13T03:06:06;21.20;65.20
54006;DHT22;39919;38.160;-122.260;2023-07-13T03:08:36;21.10;65.70
54006;DHT22;39919;38.160;-122.260;2023-07-13T12:00:26;15.60;99.90
54006;DHT22;39919;38.160;-122.260;2023-07-13T12:05:31;15.60;99.90
54006;DHT22;39919;38.160;-122.260;2023-07-13T12:08:11;15.60;99.90
54006;DHT22;39919;38.160;-122.260;2023-07-13T12:11:03;15.70;99.90
54006;DHT22;39919;38.160;-122.260;2023-07-13T12:13:37;15.70;99.90
54006;DHT22;39919;38.160;-122.260;2023-07-13T12:16:14;15.80;99.90
54006;DHT22;39919;38.160;-122.260;2023-07-13T12:18:44;15.80;99.90
54006;DHT22;39919;38.160;-122.260;2023-07-13T12:21:19;15.80;99.90
54006;DHT22;39919;38.160;-122.260;2023-07-13T12:23:53;15.80;99.90
54006;DHT22;39919;38.160;-122.260;2023-07-13T12:26:22;15.80;99.90
54006;DHT22;39919;38.160;-122.260;2023-07-13T12:28:53;15.80;99.90
54006;DHT22;39919;38.160;-122.260;2023-07-13T12:31:35;15.90;99.90
54006;DHT22;39919;38.160;-122.260;2023-07-13T12:34:13;15.80;99.90
54006;DHT22;39919;38.160;-122.260;2023-07-13T12:36:53;15.90;99.90
54006;DHT22;39919;38.160;-122.260;2023-07-13T12:39:28;15.90;99.90
54006;DHT22;39919;38.160;-122.260;2023-07-13T12:42:18;15.80;99.90
54006;DHT22;39919;38.160;-122.260;2023-07-13T12:44:54;15.90;99.90
54006;DHT22;39919;38.160;-122.260;2023-07-13T12:47:23;15.90;99.90
54006;DHT22;39919;38.160;-122.260;2023-07-13T12:49:54;15.90;99.90
54006;DHT22;39919;38.160;-122.260;2023-07-13T12:52:29;15.90;99.90
54006;DHT22;39919;38.160;-122.260;2023-07-13T12:55:07;15.90;99.90
54006;DHT22;39919;38.160;-122.260;2023-07-13T12:57:41;15.90;99.90
54006;DHT22;39919;38.160;-122.260;2023-07-13T13:00:23;15.90;99.90
54006;DHT22;39919;38.160;-122.260;2023-07-13T13:02:54;15.90;99.90
54006;DHT22;39919;38.160;-122.260;2023-07-13T13:05:26;15.90;99.90
54006;DHT22;39919;38.160;-122.260;2023-07-13T13:07:57;15.90;99.90
54006;DHT22;39919;38.160;-122.260;2023-07-13T13:10:28;15.90;99.90
54006;DHT22;39919;38.160;-122.260;2023-07-13T13:12:57;16.00;99.90
54006;DHT22;39919;38.160;-122.260;2023-07-13T13:15:36;15.90;99.90
54006;DHT22;39919;38.160;-122.260;2023-07-13T13:18:19;16.00;99.90
54006;DHT22;39919;38.160;-122.260;2023-07-13T13:20:54;15.90;99.90
54006;DHT22;39919;38.160;-122.260;2023-07-13T13:23:23;16.00;99.90
54006;DHT22;39919;38.160;-122.260;2023-07-13T13:25:54;16.00;99.90
54006;DHT22;39919;38.160;-122.260;2023-07-13T13:28:23;16.00;99.90
54006;DHT22;39919;38.160;-122.260;2023-07-13T13:31:01;16.00;99.90
54006;DHT22;39919;38.160;-122.260;2023-07-13T13:33:30;16.00;99.90
54006;DHT22;39919;38.160;-122.260;2023-07-13T13:35:59;16.10;99.90
54006;DHT22;39919;38.160;-122.260;2023-07-13T13:38:29;16.10;99.90
54006;DHT22;39919;38.160;-122.260;2023-07-13T13:41:03;16.10;99.90
54006;DHT22;39919;38.160;-122.260;2023-07-13T13:43:33;16.10;99.90
54006;DHT22;39919;38.160;-122.260;2023-07-13T13:46:02;16.10;99.90
54006;DHT22;39919;38.160;-122.260;2023-07-13T13:48:38;16.10;99.90
54006;DHT22;39919;38.160;-122.260;2023-07-13T13:51:14;16.10;99.90
54006;DHT22;39919;38.160;-122.260;2023-07-13T13:53:43;16.10;99.90
54006;DHT22;39919;38.160;-122.260;2023-07-13T13:56:15;16.10;99.90
54006;DHT22;39919;38.160;-122.260;2023-07-13T13:58:44;16.00;99.90
54006;DHT22;39919;38.160;-122.260;2023-07-13T14:01:16;16.00;99.90
54006;DHT22;39919;38.160;-122.260;2023-07-13T14:03:49;16.10;99.90
54006;DHT22;39919;38.160;-122.260;2023-07-13T14:06:19;16.10;99.90
54006;DHT22;39919;38.160;-122.260;2023-07-13T14:08:48;16.10;99.90
54006;DHT22;39919;38.160;-122.260;2023-07-13T14:11:21;16.10;99.90
54006;DHT22;39919;38.160;-122.260;2023-07-13T14:13:52;16.10;99.90
54006;DHT22;39919;38.160;-122.260;2023-07-13T14:16:23;16.20;99.90
54006;DHT22;39919;38.160;-122.260;2023-07-13T14:18:55;16.20;99.90
54006;DHT22;39919;38.160;-122.260;2023-07-13T14:21:27;16.20;99.90
54006;DHT22;39919;38.160;-122.260;2023-07-13T14:23:57;16.30;99.90
54006;DHT22;39919;38.160;-122.260;2023-07-13T14:26:29;16.40;99.90
54006;DHT22;39919;38.160;-122.260;2023-07-13T14:29:00;16.40;99.90
54006;DHT22;39919;38.160;-122.260;2023-07-13T14:31:29;16.50;99.90
54006;DHT22;39919;38.160;-122.260;2023-07-13T14:33:58;16.60;99.90
54006;DHT22;39919;38.160;-122.260;2023-07-13T14:36:30;16.70;99.90
54006;DHT22;39919;38.160;-122.260;2023-07-13T14:39:05;16.80;99.90
54006;DHT22;39919;38.160;-122.260;2023-07-13T14:41:41;17.00;99.90
54006;DHT22;39919;38.160;-122.260;2023-07-13T14:44:13;17.00;99.90
54006;DHT22;39919;38.160;-122.260;2023-07-13T14:46:43;17.20;99.90
54006;DHT22;39919;38.160;-122.260;2023-07-13T14:49:19;17.30;99.90
54006;DHT22;39919;38.160;-122.260;2023-07-13T14:51:50;17.40;99.90
54006;DHT22;39919;38.160;-122.260;2023-07-13T14:54:19;17.70;99.90
54006;DHT22;39919;38.160;-122.260;2023-07-13T14:59:21;18.20;97.40
54006;DHT22;39919;38.160;-122.260;2023-07-13T15:04:20;19.10;90.60
54006;DHT22;39919;38.160;-122.260;2023-07-13T15:06:55;19.60;90.60
54006;DHT22;39919;38.160;-122.260;2023-07-13T15:09:25;20.40;93.70
54006;DHT22;39919;38.160;-122.260;2023-07-13T15:11:57;21.00;91.70
54006;DHT22;39919;38.160;-122.260;2023-07-13T15:19:26;23.60;77.70
54006;DHT22;39919;38.160;-122.260;2023-07-13T15:21:56;24.30;75.30
54006;DHT22;39919;38.160;-122.260;2023-07-13T15:24:26;25.20;71.50
54006;DHT22;39919;38.160;-122.260;2023-07-13T15:26:57;26.10;67.80
54006;DHT22;39919;38.160;-122.260;2023-07-13T15:29:26;27.10;68.00
54006;DHT22;39919;38.160;-122.260;2023-07-13T15:32:03;28.00;65.00
54006;DHT22;39919;38.160;-122.260;2023-07-13T15:34:32;29.00;61.00
54006;DHT22;39919;38.160;-122.260;2023-07-13T15:37:07;29.80;60.40
54006;DHT22;39919;38.160;-122.260;2023-07-13T15:39:37;30.60;55.90
54006;DHT22;39919;38.160;-122.260;2023-07-13T15:42:12;31.30;56.10
54006;DHT22;39919;38.160;-122.260;2023-07-13T15:44:43;32.00;54.80
54006;DHT22;39919;38.160;-122.260;2023-07-13T15:47:12;32.60;53.40
54006;DHT22;39919;38.160;-122.260;2023-07-13T15:49:43;33.30;52.90
54006;DHT22;39919;38.160;-122.260;2023-07-13T15:52:17;33.90;51.20
54006;DHT22;39919;38.160;-122.260;2023-07-13T15:54:47;34.50;50.80
54006;DHT22;39919;38.160;-122.260;2023-07-13T15:57:18;35.00;49.80
54006;DHT22;39919;38.160;-122.260;2023-07-13T15:59:51;35.50;49.60
54006;DHT22;39919;38.160;-122.260;2023-07-13T16:02:21;36.30;45.10
54006;DHT22;39919;38.160;-122.260;2023-07-13T16:04:50;36.30;46.60
54006;DHT22;39919;38.160;-122.260;2023-07-13T16:07:19;36.80;47.80
54006;DHT22;39919;38.160;-122.260;2023-07-13T16:09:49;37.20;47.20
54006;DHT22;39919;38.160;-122.260;2023-07-13T16:12:20;37.70;45.40
54006;DHT22;39919;38.160;-122.260;2023-07-13T16:14:49;38.00;45.30
54006;DHT22;39919;38.160;-122.260;2023-07-13T16:17:19;38.30;44.80
54006;DHT22;39919;38.160;-122.260;2023-07-13T16:19:48;38.70;42.80
54006;DHT22;39919;38.160;-122.260;2023-07-13T16:22:19;38.90;44.50
54006;DHT22;39919;38.160;-122.260;2023-07-13T16:24:52;39.20;43.50
54006;DHT22;39919;38.160;-122.260;2023-07-13T16:29:53;40.00;41.10
54006;DHT22;39919;38.160;-122.260;2023-07-13T16:32:22;40.10;42.10
54006;DHT22;39919;38.160;-122.260;2023-07-13T16:34:52;40.30;42.80
54006;DHT22;39919;38.160;-122.260;2023-07-13T16:37:25;40.60;42.00
54006;DHT22;39919;38.160;-122.260;2023-07-13T16:39:56;40.70;42.40
54006;DHT22;39919;38.160;-122.260;2023-07-13T16:42:28;40.90;40.20
54006;DHT22;39919;38.160;-122.260;2023-07-13T16:44:58;41.10;41.70
54006;DHT22;39919;38.160;-122.260;2023-07-13T16:47:27;41.30;41.40
54006;DHT22;39919;38.160;-122.260;2023-07-13T18:55:26;42.30;34.80
54006;DHT22;39919;38.160;-122.260;2023-07-13T18:57:55;42.30;37.60
54006;DHT22;39919;38.160;-122.260;2023-07-13T19:00:26;42.00;37.90
54006;DHT22;39919;38.160;-122.260;2023-07-13T19:02:55;41.70;38.00
54006;DHT22;39919;38.160;-122.260;2023-07-13T19:05:29;41.50;38.90
54006;DHT22;39919;38.160;-122.260;2023-07-13T19:07:59;41.30;39.90
54006;DHT22;39919;38.160;-122.260;2023-07-13T19:10:31;41.40;39.60
54006;DHT22;39919;38.160;-122.260;2023-07-13T19:13:01;41.30;40.00
54006;DHT22;39919;38.160;-122.260;2023-07-13T19:15:33;41.30;40.10
54006;DHT22;39919;38.160;-122.260;2023-07-13T19:18:11;41.30;40.10
54006;DHT22;39919;38.160;-122.260;2023-07-13T19:20:43;41.30;39.30
54006;DHT22;39919;38.160;-122.260;2023-07-13T19:23:21;41.30;40.60
54006;DHT22;39919;38.160;-122.260;2023-07-13T19:25:54;41.30;41.10
54006;DHT22;39919;38.160;-122.260;2023-07-13T19:28:28;41.20;41.00
54006;DHT22;39919;38.160;-122.260;2023-07-13T19:30:59;41.10;40.60
54006;DHT22;39919;38.160;-122.260;2023-07-13T19:33:29;40.80;39.90
54006;DHT22;39919;38.160;-122.260;2023-07-13T19:36:00;40.50;39.40
54006;DHT22;39919;38.160;-122.260;2023-07-13T19:38:29;40.10;39.60
54006;DHT22;39919;38.160;-122.260;2023-07-13T19:40:59;39.60;40.40
54006;DHT22;39919;38.160;-122.260;2023-07-13T19:43:28;39.10;40.50
54006;DHT22;39919;38.160;-122.260;2023-07-13T19:45:57;38.60;40.60
54006;DHT22;39919;38.160;-122.260;2023-07-13T19:48:26;38.00;40.80
54006;DHT22;39919;38.160;-122.260;2023-07-13T19:50:55;37.60;40.90
54006;DHT22;39919;38.160;-122.260;2023-07-13T19:53:26;37.10;40.90
54006;DHT22;39919;38.160;-122.260;2023-07-13T19:55:55;36.50;41.10
54006;DHT22;39919;38.160;-122.260;2023-07-13T19:58:24;36.10;42.10
54006;DHT22;39919;38.160;-122.260;2023-07-13T20:00:54;35.70;42.40
54006;DHT22;39919;38.160;-122.260;2023-07-13T20:03:23;35.30;42.80
54006;DHT22;39919;38.160;-122.260;2023-07-13T20:05:52;34.90;42.80
54006;DHT22;39919;38.160;-122.260;2023-07-13T20:08:21;34.60;43.00
54006;DHT22;39919;38.160;-122.260;2023-07-13T20:10:54;34.20;43.70
54006;DHT22;39919;38.160;-122.260;2023-07-13T20:13:23;33.90;43.80
54006;DHT22;39919;38.160;-122.260;2023-07-13T20:15:58;33.60;43.60
54006;DHT22;39919;38.160;-122.260;2023-07-13T20:18:27;33.30;43.60
54006;DHT22;39919;38.160;-122.260;2023-07-13T20:20:56;33.10;43.90
54006;DHT22;39919;38.160;-122.260;2023-07-13T20:23:25;32.80;43.80
54006;DHT22;39919;38.160;-122.260;2023-07-13T20:25:56;32.60;44.10
54006;DHT22;39919;38.160;-122.260;2023-07-13T20:28:26;32.30;44.50
54006;DHT22;39919;38.160;-122.260;2023-07-13T20:30:55;32.10;44.70
54006;DHT22;39919;38.160;-122.260;2023-07-13T20:33:25;31.80;45.00
54006;DHT22;39919;38.160;-122.260;2023-07-13T20:35:56;31.60;45.30
54006;DHT22;39919;38.160;-122.260;2023-07-13T20:38:28;31.40;45.70
54006;DHT22;39919;38.160;-122.260;2023-07-13T20:40:59;31.20;46.00
54006;DHT22;39919;38.160;-122.260;2023-07-13T20:43:29;31.00;45.70
54006;DHT22;39919;38.160;-122.260;2023-07-13T20:46:02;30.90;46.40
54006;DHT22;39919;38.160;-122.260;2023-07-13T20:48:35;30.80;46.50
54006;DHT22;39919;38.160;-122.260;2023-07-13T20:51:08;30.70;47.10
54006;DHT22;39919;38.160;-122.260;2023-07-13T20:53:38;30.60;47.00
54006;DHT22;39919;38.160;-122.260;2023-07-13T20:56:12;30.50;47.30
54006;DHT22;39919;38.160;-122.260;2023-07-13T20:58:42;30.40;47.60
54006;DHT22;39919;38.160;-122.260;2023-07-13T21:01:15;30.40;47.70
54006;DHT22;39919;38.160;-122.260;2023-07-13T21:03:45;30.40;47.90
54006;DHT22;39919;38.160;-122.260;2023-07-13T21:06:16;30.30;48.10
54006;DHT22;39919;38.160;-122.260;2023-07-13T21:08:46;30.30;47.90
54006;DHT22;39919;38.160;-122.260;2023-07-13T21:11:17;30.20;47.60
54006;DHT22;39919;38.160;-122.260;2023-07-13T21:13:46;30.10;47.40
54006;DHT22;39919;38.160;-122.260;2023-07-13T21:16:18;30.00;47.40
54006;DHT22;39919;38.160;-122.260;2023-07-13T21:18:48;29.90;47.70
54006;DHT22;39919;38.160;-122.260;2023-07-13T21:21:18;29.90;48.20
54006;DHT22;39919;38.160;-122.260;2023-07-13T21:23:48;29.80;48.40
54006;DHT22;39919;38.160;-122.260;2023-07-13T21:26:20;29.80;48.60
54006;DHT22;39919;38.160;-122.260;2023-07-13T21:28:50;29.80;48.70
54006;DHT22;39919;38.160;-122.260;2023-07-13T21:31:22;29.80;49.20
54006;DHT22;39919;38.160;-122.260;2023-07-13T21:33:54;29.70;49.40
54006;DHT22;39919;38.160;-122.260;2023-07-13T21:36:25;29.70;49.70
54006;DHT22;39919;38.160;-122.260;2023-07-13T21:38:57;29.70;50.00
54006;DHT22;39919;38.160;-122.260;2023-07-13T21:41:33;29.60;50.30
54006;DHT22;39919;38.160;-122.260;2023-07-13T21:44:15;29.60;50.10
54006;DHT22;39919;38.160;-122.260;2023-07-13T21:46:46;29.50;50.00
54006;DHT22;39919;38.160;-122.260;2023-07-13T21:49:15;29.50;50.10
54006;DHT22;39919;38.160;-122.260;2023-07-13T21:51:44;29.50;50.30
54006;DHT22;39919;38.160;-122.260;2023-07-13T21:54:16;29.40;49.90
54006;DHT22;39919;38.160;-122.260;2023-07-13T21:56:47;29.50;50.30
54006;DHT22;39919;38.160;-122.260;2023-07-13T21:59:18;29.40;50.30
54006;DHT22;39919;38.160;-122.260;2023-07-13T22:01:49;29.40;49.60
54006;DHT22;39919;38.160;-122.260;2023-07-13T22:04:21;29.40;49.60
54006;DHT22;39919;38.160;-122.260;2023-07-13T22:06:51;29.40;50.30
54006;DHT22;39919;38.160;-122.260;2023-07-13T22:09:22;29.30;50.10
54006;DHT22;39919;38.160;-122.260;2023-07-13T22:11:55;29.30;50.50
54006;DHT22;39919;38.160;-122.260;2023-07-13T22:14:29;29.20;50.50
54006;DHT22;39919;38.160;-122.260;2023-07-13T22:16:58;29.20;50.60
54006;DHT22;39919;38.160;-122.260;2023-07-13T22:19:29;29.20;50.80
54006;DHT22;39919;38.160;-122.260;2023-07-13T22:22:00;29.20;50.30
54006;DHT22;39919;38.160;-122.260;2023-07-13T22:24:33;29.20;50.60
54006;DHT22;39919;38.160;-122.260;2023-07-13T22:27:31;29.20;50.80
54006;DHT22;39919;38.160;-122.260;2023-07-13T22:30:00;29.20;50.80
54006;DHT22;39919;38.160;-122.260;2023-07-13T22:32:33;29.20;50.80
54006;DHT22;39919;38.160;-122.260;2023-07-13T22:35:02;29.20;50.70
54006;DHT22;39919;38.160;-122.260;2023-07-13T22:37:31;29.20;50.80
54006;DHT22;39919;38.160;-122.260;2023-07-13T22:40:10;29.20;50.50
54006;DHT22;39919;38.160;-122.260;2023-07-13T22:42:41;29.20;50.50
54006;DHT22;39919;38.160;-122.260;2023-07-13T22:45:11;29.20;50.90
54006;DHT22;39919;38.160;-122.260;2023-07-13T22:47:40;29.20;51.30
54006;DHT22;39919;38.160;-122.260;2023-07-13T22:50:16;29.20;51.40
54006;DHT22;39919;38.160;-122.260;2023-07-13T22:52:49;29.30;51.50
54006;DHT22;39919;38.160;-122.260;2023-07-13T22:55:18;29.30;51.70
54006;DHT22;39919;38.160;-122.260;2023-07-13T22:57:50;29.20;52.00
54006;DHT22;39919;38.160;-122.260;2023-07-13T23:00:19;29.30;52.00
54006;DHT22;39919;38.160;-122.260;2023-07-13T23:02:48;29.30;52.60
54006;DHT22;39919;38.160;-122.260;2023-07-13T23:05:18;29.20;52.50
54006;DHT22;39919;38.160;-122.260;2023-07-13T23:07:51;29.20;52.70
54006;DHT22;39919;38.160;-122.260;2023-07-13T23:10:21;29.20;52.60
54006;DHT22;39919;38.160;-122.260;2023-07-13T23:12:52;29.20;52.80
54006;DHT22;39919;38.160;-122.260;2023-07-13T23:15:22;29.20;52.90
54006;DHT22;39919;38.160;-122.260;2023-07-13T23:17:51;29.20;53.00
54006;DHT22;39919;38.160;-122.260;2023-07-13T23:20:23;29.10;52.80
54006;DHT22;39919;38.160;-122.260;2023-07-13T23:22:54;29.10;53.00
54006;DHT22;39919;38.160;-122.260;2023-07-13T23:25:25;29.10;53.10
54006;DHT22;39919;38.160;-122.260;2023-07-13T23:27:56;29.00;52.80
54006;DHT22;39919;38.160;-122.260;2023-07-13T23:30:27;28.90;52.90
54006;DHT22;39919;38.160;-122.260;2023-07-13T23:33:00;28.90;52.90
54006;DHT22;39919;38.160;-122.260;2023-07-13T23:35:29;28.80;52.80
54006;DHT22;39919;38.160;-122.260;2023-07-13T23:37:59;28.70;52.90
54006;DHT22;39919;38.160;-122.260;2023-07-13T23:40:28;28.70;53.20
54006;DHT22;39919;38.160;-122.260;2023-07-13T23:42:59;28.60;52.90
54006;DHT22;39919;38.160;-122.260;2023-07-13T23:45:30;28.50;52.90
54006;DHT22;39919;38.160;-122.260;2023-07-13T23:47:59;28.50;53.30
54006;DHT22;39919;38.160;-122.260;2023-07-13T23:50:31;28.40;53.20
54006;DHT22;39919;38.160;-122.260;2023-07-13T23:53:01;28.30;53.40
54006;DHT22;39919;38.160;-122.260;2023-07-13T23:55:32;28.30;53.70
54006;DHT22;39919;38.160;-122.260;2023-07-13T23:58:04;28.30;53.70
